Terminal Aerodrome Forecast
Issued by NWS

Home | Current Version | Previous Version | Text Only | Print | Product List | Glossary Off
Versions: 1 2 3 4 5 6 7 8 9 10 11 12 13 14 15 16 17

480
FTUS45 KGGW 050251 AAA
TAFSDY
TAF AMD
KSDY 050251Z 0503/0524 VRB04KT 6SM -SN BKN012 BKN028
     FM050600 29006KT P6SM OVC015
     FM051200 26009KT P6SM BKN040
     FM051800 27009KT P6SM SCT070
      AMD LTD TO CLD VIS AND WIND=

USA.gov is the U.S. government's official web portal to all federal, state and local government web resources and services.